createdAt,value
2023-01-17T00:01:56.043Z,1.08
2023-01-17T00:05:00.514Z,3.03
2023-01-17T00:08:04.613Z,1.40
2023-01-17T00:10:50.447Z,1.98
2023-01-17T00:13:35.938Z,1.52
2023-01-17T00:16:21.188Z,1.55
2023-01-17T00:19:25.201Z,1.70
2023-01-17T00:22:31.135Z,3.40
2023-01-17T00:25:38.036Z,2.35
2023-01-17T00:28:25.093Z,1.83
2023-01-17T00:31:14.058Z,1.92
2023-01-17T00:33:59.772Z,1.75
2023-01-17T00:36:45.547Z,1.27
2023-01-17T00:39:30.778Z,2.05
2023-01-17T00:42:16.390Z,1.15
2023-01-17T00:45:20.846Z,1.10
2023-01-17T00:48:25.331Z,1.67
2023-01-17T00:51:29.754Z,1.10
2023-01-17T00:54:34.755Z,2.08
2023-01-17T00:57:39.024Z,2.50
2023-01-17T01:00:42.863Z,1.60
2023-01-17T01:03:46.966Z,1.67
2023-01-17T01:06:51.460Z,1.33
2023-01-17T01:09:55.657Z,1.42
2023-01-17T01:13:00.008Z,1.25
2023-01-17T01:16:04.400Z,1.48
2023-01-17T01:19:08.596Z,0.80
2023-01-17T01:22:13.189Z,0.90
2023-01-17T01:25:18.054Z,0.75
2023-01-17T01:28:24.830Z,0.80
2023-01-17T01:31:29.010Z,0.70
2023-01-17T01:34:14.452Z,2.15
2023-01-17T01:37:00.328Z,1.85
2023-01-17T01:39:46.312Z,0.70
2023-01-17T01:42:32.162Z,1.05
2023-01-17T01:45:21.274Z,2.30
2023-01-17T01:48:43.993Z,3.05
2023-01-17T01:51:38.590Z,1.73
2023-01-17T01:54:31.972Z,1.55
2023-01-17T01:57:23.082Z,0.90
2023-01-17T02:00:14.641Z,2.08
2023-01-17T02:03:06.944Z,0.80
2023-01-17T02:05:53.196Z,1.48
2023-01-17T02:08:39.619Z,0.93
2023-01-17T02:11:26.301Z,1.10
2023-01-17T02:14:17.267Z,1.80
2023-01-17T02:17:21.339Z,0.73
2023-01-17T02:20:10.263Z,1.95
2023-01-17T02:23:33.299Z,0.85
2023-01-17T02:26:55.953Z,1.60
2023-01-17T02:30:11.016Z,1.02
2023-01-17T02:33:05.917Z,0.80
2023-01-17T02:36:14.006Z,1.20
2023-01-17T02:39:10.447Z,0.70
2023-01-17T02:42:02.960Z,2.67
2023-01-17T02:44:48.732Z,3.22
2023-01-17T02:47:34.242Z,1.60
2023-01-17T02:50:29.268Z,1.65
2023-01-17T02:53:22.848Z,1.77
2023-01-17T02:56:14.401Z,2.55
2023-01-17T02:59:33.534Z,0.90
2023-01-17T03:02:27.618Z,1.33
2023-01-17T03:05:27.406Z,2.17
2023-01-17T03:08:13.549Z,0.70
2023-01-17T03:10:59.640Z,2.13
2023-01-17T03:13:45.435Z,2.38
2023-01-17T03:16:33.706Z,2.53
2023-01-17T03:19:19.410Z,1.00
2023-01-17T03:22:05.126Z,1.75
2023-01-17T03:24:51.108Z,1.30
2023-01-17T03:27:37.112Z,3.22
2023-01-17T03:30:23.168Z,1.13
2023-01-17T03:33:09.216Z,1.20
2023-01-17T03:35:58.035Z,2.15
2023-01-17T03:38:43.662Z,0.85
2023-01-17T03:41:29.238Z,1.88
2023-01-17T03:44:15.200Z,1.58
2023-01-17T03:47:00.980Z,1.02
2023-01-17T03:49:46.573Z,3.17
2023-01-17T03:52:32.580Z,2.88
2023-01-17T03:55:18.291Z,1.92
2023-01-17T03:58:03.858Z,1.77
2023-01-17T04:00:49.733Z,1.23
2023-01-17T04:03:35.607Z,1.58
2023-01-17T04:06:21.338Z,3.17
2023-01-17T04:09:06.835Z,2.65
2023-01-17T04:11:53.304Z,1.00
2023-01-17T04:14:39.824Z,1.40
2023-01-17T04:17:26.417Z,1.05
2023-01-17T04:20:24.910Z,1.13
2023-01-17T04:23:11.151Z,3.15
2023-01-17T04:25:56.603Z,0.93
2023-01-17T04:28:42.663Z,2.33
2023-01-17T04:31:28.590Z,1.67
2023-01-17T04:34:14.729Z,2.22
2023-01-17T04:37:00.615Z,1.63
2023-01-17T04:39:45.990Z,3.00
2023-01-17T04:42:31.961Z,2.05
2023-01-17T04:45:17.613Z,1.63
2023-01-17T04:48:06.826Z,2.20
2023-01-17T04:50:59.644Z,1.77
2023-01-17T04:53:45.639Z,1.85
2023-01-17T04:56:31.268Z,2.80
2023-01-17T04:59:16.942Z,1.02
2023-01-17T05:02:02.745Z,1.17
2023-01-17T05:04:48.239Z,3.10
2023-01-17T05:07:35.686Z,2.70
2023-01-17T05:10:21.617Z,3.92
2023-01-17T05:13:07.545Z,10.40
2023-01-17T05:15:53.428Z,10.00
2023-01-17T05:18:38.949Z,7.07
2023-01-17T05:21:24.673Z,5.07
2023-01-17T05:24:10.634Z,3.90
2023-01-17T05:26:56.318Z,4.00
2023-01-17T05:29:42.258Z,2.92
2023-01-17T05:32:28.227Z,2.40
2023-01-17T05:35:14.106Z,3.55
2023-01-17T05:38:00.084Z,1.35
2023-01-17T05:40:45.838Z,3.47
2023-01-17T05:43:31.915Z,2.50
2023-01-17T05:46:18.375Z,3.08
2023-01-17T05:49:04.716Z,1.92
2023-01-17T05:51:51.682Z,4.85
2023-01-17T05:54:38.313Z,1.83
2023-01-17T05:57:24.610Z,2.42
2023-01-17T06:00:10.833Z,1.70
2023-01-17T06:02:58.624Z,1.17
2023-01-17T06:05:45.225Z,1.73
2023-01-17T06:08:31.224Z,2.25
2023-01-17T06:11:18.472Z,0.80
2023-01-17T06:14:04.395Z,1.17
2023-01-17T06:16:50.042Z,2.42
2023-01-17T06:19:35.921Z,2.75
2023-01-17T06:22:22.054Z,4.10
2023-01-17T06:25:08.108Z,3.42
2023-01-17T06:27:55.336Z,1.40
2023-01-17T06:30:41.171Z,2.13
2023-01-17T06:33:27.067Z,2.42
2023-01-17T06:36:12.910Z,1.85
2023-01-17T06:38:59.083Z,1.30
2023-01-17T06:41:45.053Z,1.45
2023-01-17T06:44:30.488Z,1.20
2023-01-17T06:47:16.216Z,2.17
2023-01-17T06:50:03.506Z,1.65
2023-01-17T06:52:59.536Z,4.35
2023-01-17T06:55:45.164Z,3.95
2023-01-17T06:58:31.035Z,1.83
2023-01-17T07:01:18.612Z,2.50
2023-01-17T07:04:05.322Z,2.08
2023-01-17T07:06:51.103Z,2.25
2023-01-17T07:09:37.174Z,1.65
2023-01-17T07:12:23.176Z,2.03
2023-01-17T07:15:09.811Z,1.00
2023-01-17T07:17:55.729Z,3.63
2023-01-17T07:20:43.975Z,1.20
2023-01-17T07:23:30.119Z,1.20
2023-01-17T07:26:17.317Z,2.45
2023-01-17T07:29:06.257Z,5.30
2023-01-17T07:31:52.072Z,2.55
2023-01-17T07:34:37.890Z,1.65
2023-01-17T07:37:25.974Z,1.02
2023-01-17T07:40:12.206Z,2.40
2023-01-17T07:43:01.872Z,1.30
2023-01-17T07:45:50.830Z,1.40
2023-01-17T07:48:36.764Z,1.27
2023-01-17T07:51:22.916Z,2.50
2023-01-17T07:54:08.787Z,2.08
2023-01-17T07:56:54.341Z,1.48
2023-01-17T07:59:40.073Z,1.88
2023-01-17T08:02:25.652Z,1.08
2023-01-17T08:05:11.272Z,2.42
2023-01-17T08:07:57.177Z,1.98
2023-01-17T08:10:42.994Z,2.60
2023-01-17T08:13:29.900Z,1.83
2023-01-17T08:16:15.935Z,1.38
2023-01-17T08:19:01.883Z,1.38
2023-01-17T08:21:47.689Z,3.28
2023-01-17T08:24:33.342Z,2.35
2023-01-17T08:27:18.771Z,1.33
2023-01-17T08:30:05.967Z,1.13
2023-01-17T08:32:51.639Z,1.05
2023-01-17T08:35:37.336Z,2.03
2023-01-17T08:38:23.807Z,1.92
2023-01-17T08:41:09.397Z,2.30
2023-01-17T08:43:55.131Z,1.30
2023-01-17T08:46:41.320Z,4.40
2023-01-17T08:49:29.783Z,2.00
2023-01-17T08:52:15.673Z,1.33
2023-01-17T08:55:01.461Z,2.58
2023-01-17T08:57:47.820Z,5.40
2023-01-17T09:00:33.812Z,1.98
2023-01-17T09:03:19.587Z,1.67
2023-01-17T09:06:07.353Z,1.88
2023-01-17T09:08:54.811Z,2.60
2023-01-17T09:11:40.453Z,1.98
2023-01-17T09:14:26.335Z,1.90
2023-01-17T09:17:13.790Z,2.85
2023-01-17T09:19:59.908Z,1.88
2023-01-17T09:22:46.258Z,1.30
2023-01-17T09:25:32.028Z,3.45
2023-01-17T09:28:17.854Z,1.75
2023-01-17T09:31:07.807Z,1.05
2023-01-17T09:33:54.669Z,1.25
2023-01-17T09:36:42.049Z,1.48
2023-01-17T09:39:27.669Z,1.25
2023-01-17T09:42:33.488Z,1.55
2023-01-17T09:45:20.807Z,1.92
2023-01-17T09:48:14.441Z,2.33
2023-01-17T09:51:04.662Z,1.55
2023-01-17T09:56:42.854Z,1.55
2023-01-17T09:59:40.248Z,1.20
2023-01-17T10:02:45.960Z,1.95
2023-01-17T10:05:41.831Z,2.03
2023-01-17T10:08:32.684Z,1.15
2023-01-17T10:11:18.424Z,1.05
2023-01-17T10:14:22.767Z,0.95
2023-01-17T10:17:36.315Z,0.65
2023-01-17T10:20:45.045Z,1.40
2023-01-17T10:24:04.799Z,2.58
2023-01-17T10:26:56.343Z,1.58
2023-01-17T10:29:45.785Z,1.92
2023-01-17T10:32:35.431Z,2.10
2023-01-17T10:35:26.431Z,2.38
2023-01-17T10:38:14.695Z,0.60
2023-01-17T10:41:14.746Z,1.48
2023-01-17T10:44:12.336Z,2.55
2023-01-17T10:47:10.987Z,0.85
2023-01-17T10:50:01.908Z,1.33
2023-01-17T10:52:53.275Z,1.13
2023-01-17T10:55:49.565Z,1.15
2023-01-17T10:58:35.446Z,1.00
2023-01-17T11:01:22.129Z,1.10
2023-01-17T11:04:22.522Z,1.13
2023-01-17T11:07:13.790Z,0.68
2023-01-17T11:09:59.485Z,1.08
2023-01-17T11:12:47.458Z,1.05
2023-01-17T11:15:39.512Z,0.93
2023-01-17T11:18:29.052Z,1.42
2023-01-17T11:21:16.803Z,0.98
2023-01-17T11:24:11.447Z,2.45
2023-01-17T11:26:57.690Z,0.85
2023-01-17T11:29:43.737Z,2.42
2023-01-17T11:32:32.827Z,0.95
2023-01-17T11:35:19.005Z,0.95
2023-01-17T11:38:12.094Z,1.52
2023-01-17T11:41:20.324Z,1.83
2023-01-17T11:44:29.892Z,1.25
2023-01-17T11:47:21.696Z,4.43
2023-01-17T11:50:26.239Z,8.98
2023-01-17T11:53:21.436Z,1.80
2023-01-17T11:56:30.998Z,4.43
2023-01-17T11:59:31.560Z,3.20
2023-01-17T12:02:39.823Z,5.40
2023-01-17T12:05:40.582Z,1.55
2023-01-17T12:08:26.047Z,0.90
2023-01-17T12:11:30.504Z,4.97
2023-01-17T12:14:31.348Z,4.35
2023-01-17T12:17:44.185Z,19.25
2023-01-17T12:20:38.928Z,22.08
2023-01-17T12:23:27.776Z,7.15
2023-01-17T12:26:34.266Z,3.70
2023-01-17T12:29:23.078Z,1.75
2023-01-17T12:32:19.545Z,1.45
2023-01-17T12:35:31.160Z,0.60
2023-01-17T12:38:34.997Z,0.57
2023-01-17T12:41:36.961Z,0.95
2023-01-17T12:44:39.149Z,0.70
2023-01-17T12:47:25.376Z,2.17
2023-01-17T12:50:38.182Z,1.60
2023-01-17T12:53:48.166Z,2.22
2023-01-17T12:56:40.724Z,8.18
2023-01-17T12:59:49.725Z,6.28
2023-01-17T13:03:05.779Z,22.10
2023-01-17T13:05:52.367Z,16.05
2023-01-17T13:08:46.639Z,9.60
2023-01-17T13:11:49.748Z,6.72
2023-01-17T13:14:35.966Z,5.53
2023-01-17T13:17:29.503Z,5.45
2023-01-17T13:20:36.848Z,4.80
2023-01-17T13:23:30.423Z,4.20
2023-01-17T13:26:36.541Z,5.18
2023-01-17T13:29:44.820Z,5.38
2023-01-17T13:32:52.368Z,5.47
2023-01-17T13:35:44.334Z,6.60
2023-01-17T13:38:54.838Z,5.57
2023-01-17T13:41:56.534Z,4.78
2023-01-17T13:44:42.812Z,4.38
2023-01-17T13:47:29.607Z,4.15
2023-01-17T13:50:43.101Z,3.45
2023-01-17T13:53:35.059Z,4.28
2023-01-17T13:56:29.654Z,3.65
2023-01-17T13:59:28.016Z,4.18
2023-01-17T14:02:31.983Z,4.35
2023-01-17T14:05:18.428Z,3.03
2023-01-17T14:08:12.837Z,2.03
2023-01-17T14:11:09.842Z,1.65
2023-01-17T14:13:57.251Z,2.28
2023-01-17T14:16:46.116Z,0.70
2023-01-17T14:19:37.141Z,1.50
2023-01-17T14:22:29.408Z,1.67
2023-01-17T14:25:18.174Z,4.82
2023-01-17T14:28:19.982Z,4.32
2023-01-17T14:31:11.250Z,3.08
2023-01-17T14:34:12.710Z,6.28
2023-01-17T14:37:33.424Z,9.43
2023-01-17T14:40:30.520Z,50.33
2023-01-17T14:43:20.197Z,29.20
2023-01-17T14:46:12.905Z,8.27
2023-01-17T14:49:04.007Z,5.88
2023-01-17T14:52:03.184Z,7.55
2023-01-17T14:54:52.634Z,5.95
2023-01-17T14:57:38.508Z,2.20
2023-01-17T15:00:25.507Z,3.45
2023-01-17T15:03:12.789Z,3.45
2023-01-17T15:06:09.777Z,2.20
2023-01-17T15:08:55.689Z,1.75
2023-01-17T15:11:41.717Z,3.70
2023-01-17T15:14:32.421Z,1.67
2023-01-17T15:17:21.877Z,1.15
2023-01-17T15:20:16.084Z,1.87
2023-01-17T15:23:03.331Z,1.65
2023-01-17T15:25:51.949Z,10.15
2023-01-17T15:28:37.981Z,2.47
2023-01-17T15:31:43.321Z,4.80
2023-01-17T15:34:36.125Z,3.95
2023-01-17T15:37:40.125Z,4.10
2023-01-17T15:40:26.899Z,1.98
2023-01-17T15:43:19.952Z,2.67
2023-01-17T15:46:06.099Z,3.00
2023-01-17T15:48:52.031Z,2.58
2023-01-17T15:51:39.464Z,1.80
2023-01-17T15:54:56.690Z,1.48
2023-01-17T15:57:47.649Z,3.35
2023-01-17T16:00:41.811Z,7.20
2023-01-17T16:03:30.256Z,5.05
2023-01-17T16:06:47.568Z,3.08
2023-01-17T16:09:45.026Z,1.42
2023-01-17T16:12:30.882Z,2.28
2023-01-17T16:15:18.397Z,3.58
2023-01-17T16:18:15.554Z,2.95
2023-01-17T16:21:11.814Z,2.15
2023-01-17T16:23:58.581Z,2.30
2023-01-17T16:26:44.306Z,2.38
2023-01-17T16:29:29.900Z,3.75
2023-01-17T16:32:15.965Z,2.75
2023-01-17T16:35:01.325Z,2.38
2023-01-17T16:37:55.907Z,1.67
2023-01-17T16:40:46.217Z,2.50
2023-01-17T16:43:32.196Z,2.42
2023-01-17T16:46:21.024Z,2.35
2023-01-17T16:49:06.719Z,4.38
2023-01-17T16:51:52.364Z,3.75
2023-01-17T16:54:38.176Z,3.08
2023-01-17T16:57:24.339Z,3.55
2023-01-17T17:00:12.200Z,2.95
2023-01-17T17:02:58.052Z,2.88
2023-01-17T17:05:45.221Z,2.85
2023-01-17T17:08:37.368Z,3.22
2023-01-17T17:11:23.841Z,3.63
2023-01-17T17:14:09.857Z,3.22
2023-01-17T17:16:56.825Z,2.15
2023-01-17T17:19:42.480Z,2.10
2023-01-17T17:22:28.713Z,2.45
2023-01-17T17:25:16.086Z,1.88
2023-01-17T17:28:01.536Z,2.58
2023-01-17T17:30:47.171Z,2.95
2023-01-17T17:33:33.342Z,3.33
2023-01-17T17:36:19.425Z,2.95
2023-01-17T17:39:09.133Z,2.22
2023-01-17T17:41:55.195Z,2.67
2023-01-17T17:44:41.253Z,2.45
2023-01-17T17:47:27.536Z,2.67
2023-01-17T17:50:13.644Z,2.90
2023-01-17T17:52:59.679Z,2.17
2023-01-17T17:55:51.139Z,2.40
2023-01-17T17:58:41.246Z,3.25
2023-01-17T18:01:40.196Z,7.40
2023-01-17T18:04:30.203Z,7.00
2023-01-17T18:07:17.021Z,5.45
2023-01-17T18:10:03.795Z,6.68
2023-01-17T18:12:52.826Z,16.45
2023-01-17T18:15:38.473Z,11.20
2023-01-17T18:18:24.856Z,8.98
2023-01-17T18:21:16.322Z,11.68
2023-01-17T18:24:13.850Z,10.50
2023-01-17T18:27:04.161Z,8.85
2023-01-17T18:29:54.802Z,10.82
2023-01-17T18:32:43.070Z,12.50
2023-01-17T18:35:33.949Z,14.38
2023-01-17T18:38:20.039Z,13.95
2023-01-17T18:41:07.843Z,19.95
2023-01-17T18:43:56.245Z,9.43
2023-01-17T18:46:44.114Z,10.73
2023-01-17T18:49:33.236Z,9.45
2023-01-17T18:52:20.895Z,10.68
2023-01-17T18:55:06.978Z,11.95
2023-01-17T18:57:53.251Z,8.00
2023-01-17T19:00:39.233Z,8.10
2023-01-17T19:03:31.629Z,9.10
2023-01-17T19:06:20.276Z,7.65
2023-01-17T19:09:08.210Z,7.55
2023-01-17T19:11:54.261Z,9.93
2023-01-17T19:14:40.473Z,8.65
2023-01-17T19:17:26.867Z,11.65
2023-01-17T19:20:13.505Z,11.13
2023-01-17T19:22:59.675Z,11.13
2023-01-17T19:25:45.823Z,11.13
2023-01-17T19:28:35.524Z,11.02
2023-01-17T19:31:27.179Z,9.93
2023-01-17T19:34:14.712Z,10.77
2023-01-17T19:37:01.120Z,10.07
2023-01-17T19:39:47.247Z,11.38
2023-01-17T19:42:33.429Z,11.50
2023-01-17T19:45:19.588Z,12.07
2023-01-17T19:48:05.851Z,12.50
2023-01-17T19:50:52.279Z,12.45
2023-01-17T19:53:39.105Z,13.05
2023-01-17T19:56:28.880Z,12.52
2023-01-17T19:59:15.307Z,14.07
2023-01-17T20:02:01.827Z,12.40
2023-01-17T20:04:48.571Z,12.38
2023-01-17T20:07:34.728Z,11.95
2023-01-17T20:10:21.190Z,12.50
2023-01-17T20:13:08.585Z,17.05
2023-01-17T20:15:56.150Z,13.27
2023-01-17T20:18:43.376Z,12.65
2023-01-17T20:21:31.473Z,13.45
2023-01-17T20:24:18.212Z,12.35
2023-01-17T20:27:04.761Z,13.32
2023-01-17T20:29:50.946Z,11.68
2023-01-17T20:32:36.714Z,12.27
2023-01-17T20:35:22.600Z,11.95
2023-01-17T20:38:10.496Z,12.80
2023-01-17T20:40:56.365Z,12.32
2023-01-17T20:43:43.766Z,13.10
2023-01-17T20:46:35.501Z,11.57
2023-01-17T20:49:21.951Z,12.23
2023-01-17T20:52:07.773Z,13.40
2023-01-17T20:54:53.974Z,10.77
2023-01-17T20:57:40.306Z,11.55
2023-01-17T21:00:26.489Z,13.02
2023-01-17T21:03:12.681Z,11.68
2023-01-17T21:06:07.271Z,13.68
2023-01-17T21:08:53.675Z,12.52
2023-01-17T21:11:40.962Z,11.23
2023-01-17T21:14:30.127Z,21.33
2023-01-17T21:17:23.215Z,11.55
2023-01-17T21:20:10.735Z,10.80
2023-01-17T21:22:59.530Z,10.80
2023-01-17T21:25:55.524Z,10.02
2023-01-17T21:28:44.304Z,11.02
2023-01-17T21:31:33.594Z,11.25
2023-01-17T21:34:19.626Z,10.60
2023-01-17T21:37:05.147Z,10.43
2023-01-17T21:39:54.890Z,10.73
2023-01-17T21:42:50.470Z,11.80
2023-01-17T21:45:42.868Z,12.43
2023-01-17T21:48:28.812Z,12.02
2023-01-17T21:51:14.868Z,11.15
2023-01-17T21:54:00.587Z,12.05
2023-01-17T21:57:04.846Z,12.38
2023-01-17T21:59:51.554Z,12.38
2023-01-17T22:02:37.433Z,10.52
2023-01-17T22:05:23.325Z,9.25
2023-01-17T22:08:12.085Z,10.48
2023-01-17T22:11:02.177Z,9.85
2023-01-17T22:13:48.353Z,9.77
2023-01-17T22:16:34.123Z,9.20
2023-01-17T22:19:19.891Z,10.35
2023-01-17T22:22:05.852Z,9.75
2023-01-17T22:24:51.637Z,9.85
2023-01-17T22:27:37.606Z,10.52
2023-01-17T22:30:23.123Z,10.75
2023-01-17T22:33:09.028Z,10.38
2023-01-17T22:35:59.018Z,21.33
2023-01-17T22:41:32.036Z,28.88
2023-01-17T22:44:18.006Z,22.45
2023-01-17T22:47:03.594Z,21.55
2023-01-17T22:49:49.202Z,13.30
2023-01-17T22:52:35.802Z,15.02
2023-01-17T22:55:21.723Z,15.43
2023-01-17T22:58:07.352Z,11.07
2023-01-17T23:00:53.362Z,11.13
2023-01-17T23:03:44.601Z,11.05
2023-01-17T23:06:33.186Z,18.40
2023-01-17T23:09:19.435Z,13.40
2023-01-17T23:12:05.477Z,12.35
2023-01-17T23:15:10.036Z,10.70
2023-01-17T23:18:14.350Z,16.33
2023-01-17T23:21:00.427Z,13.07
2023-01-17T23:23:46.187Z,10.85
2023-01-17T23:26:31.737Z,19.88
2023-01-17T23:29:17.445Z,17.33
2023-01-17T23:32:03.011Z,13.63
2023-01-17T23:34:48.722Z,13.27
2023-01-17T23:37:52.887Z,12.02
2023-01-17T23:40:39.341Z,17.42
2023-01-17T23:43:25.374Z,15.63
2023-01-17T23:46:12.407Z,14.32
2023-01-17T23:48:57.825Z,15.43
2023-01-17T23:51:43.562Z,12.80
2023-01-17T23:54:29.094Z,12.95
2023-01-17T23:57:14.685Z,11.85
